createdAt,value
2022-12-23T00:01:34.803Z,9.5
2022-12-23T00:11:34.785Z,9.4
2022-12-23T00:21:34.749Z,9.4
2022-12-23T00:31:34.755Z,9.4
2022-12-23T00:41:34.739Z,9.4
2022-12-23T00:51:34.726Z,9.3
2022-12-23T01:01:34.771Z,9.4
2022-12-23T01:11:34.667Z,9.4
2022-12-23T01:21:34.677Z,9.3
2022-12-23T01:31:34.695Z,9.3
2022-12-23T01:41:34.633Z,9.3
2022-12-23T01:51:34.625Z,9.3
2022-12-23T02:01:34.728Z,9.3
2022-12-23T02:11:34.605Z,9.3
2022-12-23T02:21:34.595Z,9.3
2022-12-23T02:31:34.522Z,9.3
2022-12-23T02:41:34.547Z,9.3
2022-12-23T02:51:34.545Z,9.3
2022-12-23T03:01:34.553Z,9.3
2022-12-23T03:11:34.512Z,9.3
2022-12-23T03:21:34.522Z,9.3
2022-12-23T03:31:34.568Z,9.2
2022-12-23T03:41:34.452Z,9.2
2022-12-23T03:51:34.475Z,9.2
2022-12-23T04:01:34.460Z,9.2
2022-12-23T04:11:34.443Z,9.2
2022-12-23T04:21:34.412Z,9.2
2022-12-23T04:31:34.459Z,9.1
2022-12-23T04:41:34.380Z,9.1
2022-12-23T04:51:34.357Z,9.2
2022-12-23T05:01:34.404Z,9.2
2022-12-23T05:11:40.195Z,9.2
2022-12-23T05:21:34.329Z,9.3
2022-12-23T05:31:34.339Z,9.2
2022-12-23T05:41:34.295Z,9.2
2022-12-23T05:51:34.266Z,9.1
2022-12-23T06:01:34.353Z,9.1
2022-12-23T06:11:34.251Z,9.1
2022-12-23T06:21:34.248Z,9.1
2022-12-23T06:31:34.249Z,9.2
2022-12-23T06:41:34.198Z,9.2
2022-12-23T06:51:34.187Z,9.2
2022-12-23T07:01:34.279Z,9.3
2022-12-23T07:11:34.173Z,9.2
2022-12-23T07:21:34.154Z,9.2
2022-12-23T07:31:35.448Z,9.2
2022-12-23T07:41:34.163Z,9.2
2022-12-23T07:51:34.136Z,9.2
2022-12-23T08:01:34.163Z,9.2
2022-12-23T08:11:34.057Z,9.3
2022-12-23T08:21:34.058Z,9.3
2022-12-23T08:31:34.103Z,9.3
2022-12-23T08:41:34.028Z,9.4
2022-12-23T08:51:34.031Z,9.4
2022-12-23T09:01:34.108Z,9.5
2022-12-23T09:11:33.997Z,9.4
2022-12-23T09:21:33.984Z,9.4
2022-12-23T09:31:37.253Z,9.4
2022-12-23T09:41:34.003Z,9.4
2022-12-23T09:51:33.923Z,9.6
2022-12-23T10:01:33.966Z,9.7
2022-12-23T10:11:33.902Z,9.7
2022-12-23T10:21:33.878Z,9.8
2022-12-23T10:31:40.447Z,9.8
2022-12-23T10:41:33.859Z,9.8
2022-12-23T10:51:33.834Z,9.9
2022-12-23T11:01:34.001Z,9.8
2022-12-23T11:11:33.822Z,10
2022-12-23T11:21:33.825Z,10
2022-12-23T11:31:33.810Z,10
2022-12-23T11:41:33.786Z,10.1
2022-12-23T11:51:33.746Z,10.2
2022-12-23T12:01:33.705Z,10.1
2022-12-23T12:11:33.736Z,10.1
2022-12-23T12:21:33.697Z,10
2022-12-23T12:31:33.664Z,10
2022-12-23T12:41:33.683Z,9.9
2022-12-23T12:51:33.657Z,9.9
2022-12-23T13:01:33.711Z,9.9
2022-12-23T13:11:33.656Z,9.8
2022-12-23T13:21:33.624Z,9.9
2022-12-23T13:31:33.660Z,9.8
2022-12-23T13:41:33.594Z,9.8
2022-12-23T13:51:33.569Z,9.9
2022-12-23T14:01:33.611Z,10
2022-12-23T14:11:33.554Z,10
2022-12-23T14:21:33.529Z,10
2022-12-23T14:31:33.563Z,10
2022-12-23T14:41:33.507Z,10
2022-12-23T14:51:33.499Z,10.1
2022-12-23T15:01:33.562Z,10
2022-12-23T15:11:33.476Z,10
2022-12-23T15:21:33.466Z,10
2022-12-23T15:31:33.473Z,10
2022-12-23T15:41:33.465Z,9.9
2022-12-23T15:52:07.170Z,9.9
2022-12-23T16:01:33.368Z,10
2022-12-23T16:11:33.384Z,10
2022-12-23T16:21:33.371Z,10
2022-12-23T16:31:33.343Z,9.9
2022-12-23T16:41:33.328Z,9.9
2022-12-23T16:51:33.321Z,9.9
2022-12-23T17:01:33.336Z,9.9
2022-12-23T17:11:33.288Z,9.9
2022-12-23T17:21:33.284Z,9.9
2022-12-23T17:31:33.316Z,9.9
2022-12-23T17:41:33.263Z,9.8
2022-12-23T17:51:33.220Z,9.9
2022-12-23T18:01:33.255Z,9.9
2022-12-23T18:11:33.190Z,10
2022-12-23T18:21:33.177Z,10
2022-12-23T18:31:33.289Z,10
2022-12-23T18:41:33.163Z,10
2022-12-23T18:51:33.131Z,10
2022-12-23T19:01:33.134Z,10
2022-12-23T19:11:33.118Z,9.9
2022-12-23T19:21:33.103Z,9.9
2022-12-23T19:31:33.077Z,10
2022-12-23T19:41:33.094Z,10
2022-12-23T19:51:33.068Z,9.9
2022-12-23T20:01:33.061Z,9.9
2022-12-23T20:11:33.019Z,9.9
2022-12-23T20:21:33.039Z,9.8
2022-12-23T20:31:33.048Z,9.8
2022-12-23T20:41:32.973Z,9.7
2022-12-23T20:51:32.961Z,9.7
2022-12-23T21:01:33.024Z,9.7
2022-12-23T21:11:32.936Z,9.8
2022-12-23T21:21:32.947Z,9.8
2022-12-23T21:31:33.095Z,9.8
2022-12-23T21:41:32.900Z,9.8
2022-12-23T21:51:39.694Z,9.8
2022-12-23T22:01:32.857Z,9.8
2022-12-23T22:11:32.861Z,9.8
2022-12-23T22:21:32.834Z,9.8
2022-12-23T22:31:32.851Z,9.8
2022-12-23T22:41:32.812Z,9.7
2022-12-23T22:51:32.798Z,9.8
2022-12-23T23:01:32.845Z,9.8
2022-12-23T23:11:32.761Z,9.8
2022-12-23T23:21:32.760Z,9.8
2022-12-23T23:31:41.705Z,9.8
2022-12-23T23:41:32.722Z,9.8
2022-12-23T23:51:32.706Z,9.8
